sensor_id;sensor_type;location;lat;lon;timestamp;pressure;altitude;pressure_sealevel;temperature;humidity
28935;BME280;16044;52.726;-2.108;2023-03-12T00:00:15;99409.44;;;4.25;100.00
28935;BME280;16044;52.726;-2.108;2023-03-12T00:02:42;99406.91;;;4.32;100.00
28935;BME280;16044;52.726;-2.108;2023-03-12T00:05:09;99412.78;;;4.36;100.00
28935;BME280;16044;52.726;-2.108;2023-03-12T00:07:36;99408.59;;;4.33;100.00
28935;BME280;16044;52.726;-2.108;2023-03-12T00:10:05;99401.91;;;4.37;100.00
28935;BME280;16044;52.726;-2.108;2023-03-12T00:12:33;99412.28;;;4.40;100.00
28935;BME280;16044;52.726;-2.108;2023-03-12T00:15:00;99397.38;;;4.38;100.00
28935;BME280;16044;52.726;-2.108;2023-03-12T00:17:28;99404.94;;;4.42;100.00
28935;BME280;16044;52.726;-2.108;2023-03-12T00:19:55;99403.56;;;4.38;100.00
28935;BME280;16044;52.726;-2.108;2023-03-12T00:22:23;99400.25;;;4.44;100.00
28935;BME280;16044;52.726;-2.108;2023-03-12T00:24:52;99397.38;;;4.38;100.00
28935;BME280;16044;52.726;-2.108;2023-03-12T00:27:20;99405.44;;;4.46;100.00
28935;BME280;16044;52.726;-2.108;2023-03-12T00:29:48;99405.28;;;4.47;100.00
28935;BME280;16044;52.726;-2.108;2023-03-12T00:32:16;99396.25;;;4.48;100.00
28935;BME280;16044;52.726;-2.108;2023-03-12T00:34:42;99401.44;;;4.50;100.00
28935;BME280;16044;52.726;-2.108;2023-03-12T00:37:09;99394.06;;;4.52;100.00
28935;BME280;16044;52.726;-2.108;2023-03-12T00:39:36;99393.56;;;4.57;100.00
28935;BME280;16044;52.726;-2.108;2023-03-12T00:42:03;99395.25;;;4.58;100.00
28935;BME280;16044;52.726;-2.108;2023-03-12T00:44:30;99394.38;;;4.49;100.00
28935;BME280;16044;52.726;-2.108;2023-03-12T00:46:57;99395.88;;;4.43;100.00
28935;BME280;16044;52.726;-2.108;2023-03-12T00:49:24;99403.94;;;4.43;100.00
28935;BME280;16044;52.726;-2.108;2023-03-12T00:51:51;99406.78;;;4.42;100.00
28935;BME280;16044;52.726;-2.108;2023-03-12T00:54:19;99405.94;;;4.41;100.00
28935;BME280;16044;52.726;-2.108;2023-03-12T00:56:47;99407.44;;;4.44;100.00
28935;BME280;16044;52.726;-2.108;2023-03-12T00:59:14;99395.03;;;4.43;100.00
28935;BME280;16044;52.726;-2.108;2023-03-12T01:01:42;99391.34;;;4.44;100.00
28935;BME280;16044;52.726;-2.108;2023-03-12T01:04:09;99391.84;;;4.47;100.00
28935;BME280;16044;52.726;-2.108;2023-03-12T01:06:37;99393.19;;;4.52;100.00
28935;BME280;16044;52.726;-2.108;2023-03-12T01:09:06;99399.09;;;4.55;100.00
28935;BME280;16044;52.726;-2.108;2023-03-12T01:11:35;99398.09;;;4.56;100.00
28935;BME280;16044;52.726;-2.108;2023-03-12T01:14:04;99396.75;;;4.60;100.00
28935;BME280;16044;52.726;-2.108;2023-03-12T01:16:32;99390.56;;;4.60;100.00
28935;BME280;16044;52.726;-2.108;2023-03-12T01:19:00;99403.31;;;4.66;100.00
28935;BME280;16044;52.726;-2.108;2023-03-12T01:21:28;99405.00;;;4.67;100.00
28935;BME280;16044;52.726;-2.108;2023-03-12T01:23:55;99395.56;;;4.63;100.00
28935;BME280;16044;52.726;-2.108;2023-03-12T01:26:23;99385.34;;;4.66;100.00
28935;BME280;16044;52.726;-2.108;2023-03-12T01:28:50;99381.00;;;4.65;100.00
28935;BME280;16044;52.726;-2.108;2023-03-12T01:31:17;99383.84;;;4.64;100.00
28935;BME280;16044;52.726;-2.108;2023-03-12T01:33:48;99391.38;;;4.60;100.00
28935;BME280;16044;52.726;-2.108;2023-03-12T01:36:22;99389.03;;;4.57;100.00
28935;BME280;16044;52.726;-2.108;2023-03-12T01:38:58;99389.16;;;4.47;100.00
28935;BME280;16044;52.726;-2.108;2023-03-12T01:41:28;99396.56;;;4.54;100.00
28935;BME280;16044;52.726;-2.108;2023-03-12T01:43:59;99396.41;;;4.55;100.00
28935;BME280;16044;52.726;-2.108;2023-03-12T01:46:37;99390.88;;;4.57;100.00
28935;BME280;16044;52.726;-2.108;2023-03-12T01:49:08;99388.53;;;4.62;100.00
28935;BME280;16044;52.726;-2.108;2023-03-12T01:51:46;99402.94;;;4.61;100.00
28935;BME280;16044;52.726;-2.108;2023-03-12T01:54:24;99384.00;;;4.62;100.00
28935;BME280;16044;52.726;-2.108;2023-03-12T01:57:15;99387.19;;;4.58;100.00
28935;BME280;16044;52.726;-2.108;2023-03-12T02:00:00;99383.84;;;4.56;100.00
28935;BME280;16044;52.726;-2.108;2023-03-12T02:02:40;99384.00;;;4.54;100.00
28935;BME280;16044;52.726;-2.108;2023-03-12T02:05:31;99388.19;;;4.48;100.00
28935;BME280;16044;52.726;-2.108;2023-03-12T02:08:04;99391.84;;;4.47;100.00
28935;BME280;16044;52.726;-2.108;2023-03-12T02:10:31;99391.69;;;4.41;100.00
28935;BME280;16044;52.726;-2.108;2023-03-12T02:12:58;99386.31;;;4.41;100.00
28935;BME280;16044;52.726;-2.108;2023-03-12T02:15:25;99387.00;;;4.43;100.00
28935;BME280;16044;52.726;-2.108;2023-03-12T02:17:53;99374.41;;;4.43;100.00
28935;BME280;16044;52.726;-2.108;2023-03-12T02:20:42;99372.75;;;4.42;100.00
28935;BME280;16044;52.726;-2.108;2023-03-12T02:23:29;99387.34;;;4.48;100.00
28935;BME280;16044;52.726;-2.108;2023-03-12T02:26:00;99392.38;;;4.59;100.00
28935;BME280;16044;52.726;-2.108;2023-03-12T02:28:28;99392.88;;;4.63;100.00
28935;BME280;16044;52.726;-2.108;2023-03-12T02:31:01;99389.56;;;4.69;100.00
28935;BME280;16044;52.726;-2.108;2023-03-12T02:33:29;99397.63;;;4.77;100.00
28935;BME280;16044;52.726;-2.108;2023-03-12T02:35:56;99394.25;;;4.83;100.00
28935;BME280;16044;52.726;-2.108;2023-03-12T02:38:32;99398.13;;;4.89;100.00
28935;BME280;16044;52.726;-2.108;2023-03-12T02:41:11;99394.28;;;5.00;100.00
28935;BME280;16044;52.726;-2.108;2023-03-12T02:44:09;99403.00;;;5.02;100.00
28935;BME280;16044;52.726;-2.108;2023-03-12T02:46:41;99400.31;;;5.10;100.00
28935;BME280;16044;52.726;-2.108;2023-03-12T02:49:10;99400.50;;;5.17;100.00
28935;BME280;16044;52.726;-2.108;2023-03-12T02:51:40;99393.59;;;5.22;100.00
28935;BME280;16044;52.726;-2.108;2023-03-12T02:54:08;99397.63;;;5.26;100.00
28935;BME280;16044;52.726;-2.108;2023-03-12T02:56:36;99403.81;;;5.27;100.00
28935;BME280;16044;52.726;-2.108;2023-03-12T02:59:04;99396.09;;;5.32;100.00
28935;BME280;16044;52.726;-2.108;2023-03-12T03:01:32;99394.91;;;5.35;100.00
28935;BME280;16044;52.726;-2.108;2023-03-12T03:04:03;99397.59;;;5.35;100.00
28935;BME280;16044;52.726;-2.108;2023-03-12T03:06:31;99396.94;;;5.33;100.00
28935;BME280;16044;52.726;-2.108;2023-03-12T03:08:58;99395.59;;;5.37;100.00
28935;BME280;16044;52.726;-2.108;2023-03-12T03:11:25;99395.28;;;5.32;100.00
28935;BME280;16044;52.726;-2.108;2023-03-12T03:13:53;99404.69;;;5.27;100.00
28935;BME280;16044;52.726;-2.108;2023-03-12T03:16:21;99405.69;;;5.26;100.00
28935;BME280;16044;52.726;-2.108;2023-03-12T03:18:48;99408.38;;;5.26;100.00
28935;BME280;16044;52.726;-2.108;2023-03-12T03:21:15;99413.91;;;5.25;100.00
28935;BME280;16044;52.726;-2.108;2023-03-12T03:23:44;99421.28;;;5.23;100.00
28935;BME280;16044;52.726;-2.108;2023-03-12T03:26:13;99415.75;;;5.24;100.00
28935;BME280;16044;52.726;-2.108;2023-03-12T03:28:41;99422.47;;;5.28;100.00
28935;BME280;16044;52.726;-2.108;2023-03-12T03:31:11;99428.34;;;5.32;100.00
28935;BME280;16044;52.726;-2.108;2023-03-12T03:33:38;99435.22;;;5.35;100.00
28935;BME280;16044;52.726;-2.108;2023-03-12T03:36:07;99442.97;;;5.38;100.00
28935;BME280;16044;52.726;-2.108;2023-03-12T03:38:34;99438.59;;;5.45;100.00
28935;BME280;16044;52.726;-2.108;2023-03-12T03:41:02;99437.91;;;5.51;100.00
28935;BME280;16044;52.726;-2.108;2023-03-12T03:43:29;99440.94;;;5.56;100.00
28935;BME280;16044;52.726;-2.108;2023-03-12T03:46:01;99441.06;;;5.63;100.00
28935;BME280;16044;52.726;-2.108;2023-03-12T03:48:30;99438.88;;;5.66;100.00
28935;BME280;16044;52.726;-2.108;2023-03-12T03:51:02;99439.22;;;5.72;100.00
28935;BME280;16044;52.726;-2.108;2023-03-12T03:53:30;99453.31;;;5.74;100.00
28935;BME280;16044;52.726;-2.108;2023-03-12T03:55:57;99448.63;;;5.76;100.00
28935;BME280;16044;52.726;-2.108;2023-03-12T03:58:24;99442.41;;;5.75;100.00
28935;BME280;16044;52.726;-2.108;2023-03-12T04:00:53;99433.16;;;5.78;100.00
28935;BME280;16044;52.726;-2.108;2023-03-12T04:03:20;99432.81;;;5.81;100.00
28935;BME280;16044;52.726;-2.108;2023-03-12T04:05:53;99433.81;;;5.80;100.00
28935;BME280;16044;52.726;-2.108;2023-03-12T04:08:24;99442.75;;;5.80;100.00
28935;BME280;16044;52.726;-2.108;2023-03-12T04:10:51;99445.25;;;5.82;100.00
28935;BME280;16044;52.726;-2.108;2023-03-12T04:13:19;99444.91;;;5.85;100.00
28935;BME280;16044;52.726;-2.108;2023-03-12T04:15:52;99444.56;;;5.88;100.00
28935;BME280;16044;52.726;-2.108;2023-03-12T04:18:19;99443.72;;;5.88;100.00
28935;BME280;16044;52.726;-2.108;2023-03-12T04:20:46;99436.50;;;5.88;100.00
28935;BME280;16044;52.726;-2.108;2023-03-12T04:23:13;99452.28;;;5.91;100.00
28935;BME280;16044;52.726;-2.108;2023-03-12T04:25:40;99455.13;;;5.90;100.00
28935;BME280;16044;52.726;-2.108;2023-03-12T04:28:06;99463.69;;;5.93;100.00
28935;BME280;16044;52.726;-2.108;2023-03-12T04:30:33;99467.09;;;5.95;100.00
28935;BME280;16044;52.726;-2.108;2023-03-12T04:33:06;99473.28;;;6.04;100.00
28935;BME280;16044;52.726;-2.108;2023-03-12T04:35:33;99468.56;;;6.06;100.00
28935;BME280;16044;52.726;-2.108;2023-03-12T04:38:01;99476.97;;;6.11;100.00
28935;BME280;16044;52.726;-2.108;2023-03-12T04:40:28;99489.06;;;6.15;100.00
28935;BME280;16044;52.726;-2.108;2023-03-12T04:42:56;99491.22;;;6.20;100.00
28935;BME280;16044;52.726;-2.108;2023-03-12T04:45:22;99491.06;;;6.21;100.00
28935;BME280;16044;52.726;-2.108;2023-03-12T04:47:49;99492.22;;;6.27;100.00
28935;BME280;16044;52.726;-2.108;2023-03-12T04:50:16;99473.38;;;6.27;100.00
28935;BME280;16044;52.726;-2.108;2023-03-12T04:52:43;99472.22;;;6.30;100.00
28935;BME280;16044;52.726;-2.108;2023-03-12T04:55:10;99479.59;;;6.36;100.00
28935;BME280;16044;52.726;-2.108;2023-03-12T04:57:37;99473.16;;;6.37;100.00
28935;BME280;16044;52.726;-2.108;2023-03-12T05:00:04;99486.47;;;6.38;100.00
28935;BME280;16044;52.726;-2.108;2023-03-12T05:02:40;99497.56;;;6.43;100.00
28935;BME280;16044;52.726;-2.108;2023-03-12T05:05:08;99503.44;;;6.47;100.00
28935;BME280;16044;52.726;-2.108;2023-03-12T05:07:36;99503.59;;;6.46;100.00
28935;BME280;16044;52.726;-2.108;2023-03-12T05:10:03;99502.41;;;6.48;100.00
28935;BME280;16044;52.726;-2.108;2023-03-12T05:12:30;99501.41;;;6.49;100.00
28935;BME280;16044;52.726;-2.108;2023-03-12T05:14:57;99500.56;;;6.49;100.00
28935;BME280;16044;52.726;-2.108;2023-03-12T05:17:24;99509.66;;;6.48;100.00
28935;BME280;16044;52.726;-2.108;2023-03-12T05:19:51;99503.44;;;6.47;100.00
28935;BME280;16044;52.726;-2.108;2023-03-12T05:22:18;99501.56;;;6.48;100.00
28935;BME280;16044;52.726;-2.108;2023-03-12T05:24:45;99490.84;;;6.39;100.00
28935;BME280;16044;52.726;-2.108;2023-03-12T05:27:11;99495.19;;;6.40;100.00
28935;BME280;16044;52.726;-2.108;2023-03-12T05:29:38;99503.28;;;6.40;100.00
28935;BME280;16044;52.726;-2.108;2023-03-12T05:32:05;99494.53;;;6.38;100.00
28935;BME280;16044;52.726;-2.108;2023-03-12T05:34:33;99499.09;;;6.38;100.00
28935;BME280;16044;52.726;-2.108;2023-03-12T05:37:00;99503.44;;;6.39;100.00
28935;BME280;16044;52.726;-2.108;2023-03-12T05:39:27;99501.94;;;6.36;100.00
28935;BME280;16044;52.726;-2.108;2023-03-12T05:41:54;99504.47;;;6.38;100.00
28935;BME280;16044;52.726;-2.108;2023-03-12T05:44:23;99491.19;;;6.36;100.00
28935;BME280;16044;52.726;-2.108;2023-03-12T05:46:50;99495.56;;;6.37;100.00
28935;BME280;16044;52.726;-2.108;2023-03-12T05:49:19;99495.72;;;6.36;100.00
28935;BME280;16044;52.726;-2.108;2023-03-12T05:51:48;99502.97;;;6.35;100.00
28935;BME280;16044;52.726;-2.108;2023-03-12T05:54:16;99501.44;;;6.33;100.00
28935;BME280;16044;52.726;-2.108;2023-03-12T05:56:43;99510.56;;;6.32;100.00
28935;BME280;16044;52.726;-2.108;2023-03-12T05:59:10;99510.56;;;6.32;100.00
28935;BME280;16044;52.726;-2.108;2023-03-12T06:01:37;99501.81;;;6.30;100.00
28935;BME280;16044;52.726;-2.108;2023-03-12T06:04:05;99492.88;;;6.29;100.00
28935;BME280;16044;52.726;-2.108;2023-03-12T06:06:33;99507.00;;;6.31;100.00
28935;BME280;16044;52.726;-2.108;2023-03-12T06:09:03;99515.44;;;6.28;100.00
28935;BME280;16044;52.726;-2.108;2023-03-12T06:11:32;99504.50;;;6.30;100.00
28935;BME280;16044;52.726;-2.108;2023-03-12T06:13:59;99513.59;;;6.29;100.00
28935;BME280;16044;52.726;-2.108;2023-03-12T06:16:26;99523.16;;;6.31;100.00
28935;BME280;16044;52.726;-2.108;2023-03-12T06:18:57;99521.50;;;6.30;100.00
28935;BME280;16044;52.726;-2.108;2023-03-12T06:21:28;99524.50;;;6.27;100.00
28935;BME280;16044;52.726;-2.108;2023-03-12T06:24:00;99526.53;;;6.25;100.00
28935;BME280;16044;52.726;-2.108;2023-03-12T06:26:27;99521.53;;;6.22;100.00
28935;BME280;16044;52.726;-2.108;2023-03-12T06:28:54;99520.81;;;6.20;100.00
28935;BME280;16044;52.726;-2.108;2023-03-12T06:31:22;99529.59;;;6.14;100.00
28935;BME280;16044;52.726;-2.108;2023-03-12T06:33:50;99550.44;;;6.20;100.00
28935;BME280;16044;52.726;-2.108;2023-03-12T06:36:17;99530.91;;;6.18;100.00
28935;BME280;16044;52.726;-2.108;2023-03-12T06:38:44;99527.25;;;6.11;100.00
28935;BME280;16044;52.726;-2.108;2023-03-12T06:41:13;99539.53;;;6.13;100.00
28935;BME280;16044;52.726;-2.108;2023-03-12T06:43:42;99544.06;;;6.13;100.00
28935;BME280;16044;52.726;-2.108;2023-03-12T06:46:15;99546.09;;;6.11;100.00
28935;BME280;16044;52.726;-2.108;2023-03-12T06:48:43;99541.06;;;6.08;100.00
28935;BME280;16044;52.726;-2.108;2023-03-12T06:51:14;99553.16;;;6.03;100.00
28935;BME280;16044;52.726;-2.108;2023-03-12T06:53:42;99550.13;;;5.98;100.00
28935;BME280;16044;52.726;-2.108;2023-03-12T06:56:11;99556.00;;;5.94;100.00
28935;BME280;16044;52.726;-2.108;2023-03-12T06:58:38;99551.78;;;5.91;100.00
28935;BME280;16044;52.726;-2.108;2023-03-12T07:01:06;99550.44;;;5.87;100.00
28935;BME280;16044;52.726;-2.108;2023-03-12T07:03:33;99551.13;;;5.81;100.00
28935;BME280;16044;52.726;-2.108;2023-03-12T07:06:00;99544.56;;;5.83;100.00
28935;BME280;16044;52.726;-2.108;2023-03-12T07:08:28;99550.78;;;5.84;100.00
28935;BME280;16044;52.726;-2.108;2023-03-12T07:10:58;99554.50;;;5.83;100.00
28935;BME280;16044;52.726;-2.108;2023-03-12T07:13:29;99570.13;;;5.79;100.00
28935;BME280;16044;52.726;-2.108;2023-03-12T07:15:56;99578.03;;;5.81;100.00
28935;BME280;16044;52.726;-2.108;2023-03-12T07:18:23;99583.56;;;5.79;100.00
28935;BME280;16044;52.726;-2.108;2023-03-12T07:20:50;99580.72;;;5.81;100.00
28935;BME280;16044;52.726;-2.108;2023-03-12T07:23:18;99583.06;;;5.84;100.00
28935;BME280;16044;52.726;-2.108;2023-03-12T07:25:45;99582.41;;;5.90;100.00
28935;BME280;16044;52.726;-2.108;2023-03-12T07:28:14;99578.72;;;5.99;100.00
28935;BME280;16044;52.726;-2.108;2023-03-12T07:30:41;99570.31;;;6.11;100.00
28935;BME280;16044;52.726;-2.108;2023-03-12T07:33:10;99571.63;;;6.23;100.00
28935;BME280;16044;52.726;-2.108;2023-03-12T07:35:38;99570.06;;;6.37;100.00
28935;BME280;16044;52.726;-2.108;2023-03-12T07:38:06;99569.03;;;6.54;100.00
28935;BME280;16044;52.726;-2.108;2023-03-12T07:40:34;99568.94;;;6.71;100.00
28935;BME280;16044;52.726;-2.108;2023-03-12T07:43:03;99562.78;;;6.93;100.00
28935;BME280;16044;52.726;-2.108;2023-03-12T07:45:32;99566.91;;;7.12;100.00
28935;BME280;16044;52.726;-2.108;2023-03-12T07:47:59;99570.81;;;7.41;100.00
28935;BME280;16044;52.726;-2.108;2023-03-12T07:50:26;99570.50;;;7.59;100.00
28935;BME280;16044;52.726;-2.108;2023-03-12T07:52:52;99571.38;;;7.74;100.00
28935;BME280;16044;52.726;-2.108;2023-03-12T07:55:19;99562.25;;;7.98;100.00
28935;BME280;16044;52.726;-2.108;2023-03-12T07:57:46;99553.81;;;8.31;100.00
28935;BME280;16044;52.726;-2.108;2023-03-12T08:00:14;99538.88;;;8.44;100.00
28935;BME280;16044;52.726;-2.108;2023-03-12T08:02:43;99530.94;;;8.57;100.00
28935;BME280;16044;52.726;-2.108;2023-03-12T08:05:10;99529.16;;;8.79;100.00
28935;BME280;16044;52.726;-2.108;2023-03-12T08:07:37;99548.44;;;8.91;100.00
28935;BME280;16044;52.726;-2.108;2023-03-12T08:10:06;99542.91;;;8.99;100.00
28935;BME280;16044;52.726;-2.108;2023-03-12T08:12:36;99534.84;;;9.21;100.00
28935;BME280;16044;52.726;-2.108;2023-03-12T08:15:04;99517.16;;;9.40;100.00
28935;BME280;16044;52.726;-2.108;2023-03-12T08:17:34;99513.47;;;9.47;100.00
28935;BME280;16044;52.726;-2.108;2023-03-12T08:20:01;99519.25;;;9.66;100.00
28935;BME280;16044;52.726;-2.108;2023-03-12T08:22:28;99514.88;;;9.65;100.00
28935;BME280;16044;52.726;-2.108;2023-03-12T08:24:55;99520.78;;;9.75;100.00
28935;BME280;16044;52.726;-2.108;2023-03-12T08:27:21;99527.69;;;9.78;100.00
28935;BME280;16044;52.726;-2.108;2023-03-12T08:29:48;99525.47;;;9.88;100.00
28935;BME280;16044;52.726;-2.108;2023-03-12T08:32:15;99518.94;;;10.04;100.00
28935;BME280;16044;52.726;-2.108;2023-03-12T08:34:42;99530.25;;;10.14;100.00
28935;BME280;16044;52.726;-2.108;2023-03-12T08:37:09;99532.81;;;10.22;100.00
28935;BME280;16044;52.726;-2.108;2023-03-12T08:39:36;99550.34;;;10.26;100.00
28935;BME280;16044;52.726;-2.108;2023-03-12T08:42:03;99549.06;;;10.22;98.02
28935;BME280;16044;52.726;-2.108;2023-03-12T08:44:31;99547.84;;;10.25;97.79
28935;BME280;16044;52.726;-2.108;2023-03-12T08:46:58;99549.91;;;10.23;97.68
28935;BME280;16044;52.726;-2.108;2023-03-12T08:49:25;99557.09;;;10.30;97.84
28935;BME280;16044;52.726;-2.108;2023-03-12T08:51:52;99562.53;;;10.37;98.39
28935;BME280;16044;52.726;-2.108;2023-03-12T08:54:20;99561.94;;;10.42;98.28
28935;BME280;16044;52.726;-2.108;2023-03-12T08:56:50;99555.09;;;10.46;97.01
28935;BME280;16044;52.726;-2.108;2023-03-12T08:59:18;99554.28;;;10.45;95.60
28935;BME280;16044;52.726;-2.108;2023-03-12T09:01:46;99554.03;;;10.47;96.01
28935;BME280;16044;52.726;-2.108;2023-03-12T09:04:13;99553.19;;;10.40;95.24
28935;BME280;16044;52.726;-2.108;2023-03-12T09:06:40;99546.03;;;10.32;93.73
28935;BME280;16044;52.726;-2.108;2023-03-12T09:09:08;99535.41;;;10.30;94.89
28935;BME280;16044;52.726;-2.108;2023-03-12T09:11:36;99555.00;;;10.32;95.34
28935;BME280;16044;52.726;-2.108;2023-03-12T09:14:05;99553.19;;;10.18;94.95
28935;BME280;16044;52.726;-2.108;2023-03-12T09:16:53;99550.31;;;10.20;94.71
28935;BME280;16044;52.726;-2.108;2023-03-12T09:19:20;99550.31;;;10.20;95.00
28935;BME280;16044;52.726;-2.108;2023-03-12T09:21:47;99562.75;;;10.14;95.28
28935;BME280;16044;52.726;-2.108;2023-03-12T09:24:14;99552.75;;;10.14;95.48
28935;BME280;16044;52.726;-2.108;2023-03-12T09:26:41;99536.56;;;10.21;94.80
28935;BME280;16044;52.726;-2.108;2023-03-12T09:29:08;99533.84;;;10.21;94.10
28935;BME280;16044;52.726;-2.108;2023-03-12T09:31:34;99533.41;;;10.18;94.59
28935;BME280;16044;52.726;-2.108;2023-03-12T09:34:02;99546.53;;;10.21;94.80
28935;BME280;16044;52.726;-2.108;2023-03-12T09:36:30;99549.84;;;10.16;94.50
28935;BME280;16044;52.726;-2.108;2023-03-12T09:38:58;99539.81;;;10.10;94.72
28935;BME280;16044;52.726;-2.108;2023-03-12T09:41:28;99526.28;;;10.10;95.18
28935;BME280;16044;52.726;-2.108;2023-03-12T09:49:18;99524.41;;;10.10;94.54
28935;BME280;16044;52.726;-2.108;2023-03-12T09:51:52;99522.13;;;10.14;94.90
28935;BME280;16044;52.726;-2.108;2023-03-12T09:54:51;99517.34;;;10.16;93.52
28935;BME280;16044;52.726;-2.108;2023-03-12T09:57:25;99532.34;;;10.12;94.01
28935;BME280;16044;52.726;-2.108;2023-03-12T09:59:56;99524.09;;;10.27;93.95
28935;BME280;16044;52.726;-2.108;2023-03-12T10:17:18;99516.22;;;10.67;90.30
28935;BME280;16044;52.726;-2.108;2023-03-12T10:23:02;99522.31;;;10.76;90.34
28935;BME280;16044;52.726;-2.108;2023-03-12T10:28:16;99507.31;;;10.80;90.99
28935;BME280;16044;52.726;-2.108;2023-03-12T10:30:50;99497.94;;;10.82;91.33
28935;BME280;16044;52.726;-2.108;2023-03-12T10:33:22;99496.53;;;10.93;90.50
28935;BME280;16044;52.726;-2.108;2023-03-12T10:35:53;99496.53;;;11.00;90.49
28935;BME280;16044;52.726;-2.108;2023-03-12T10:38:28;99503.25;;;11.10;90.39
28935;BME280;16044;52.726;-2.108;2023-03-12T10:40:55;99494.09;;;11.11;89.66
28935;BME280;16044;52.726;-2.108;2023-03-12T10:43:22;99509.09;;;11.21;89.69
28935;BME280;16044;52.726;-2.108;2023-03-12T10:46:01;99507.44;;;11.20;89.59
28935;BME280;16044;52.726;-2.108;2023-03-12T10:48:36;99507.88;;;11.23;88.61
28935;BME280;16044;52.726;-2.108;2023-03-12T10:51:06;99503.28;;;11.24;85.50
28935;BME280;16044;52.726;-2.108;2023-03-12T10:53:42;99507.44;;;11.26;86.91
28935;BME280;16044;52.726;-2.108;2023-03-12T10:56:16;99500.56;;;11.24;87.21
28935;BME280;16044;52.726;-2.108;2023-03-12T10:58:46;99500.78;;;11.36;87.97
28935;BME280;16044;52.726;-2.108;2023-03-12T11:01:19;99505.41;;;11.48;88.19
28935;BME280;16044;52.726;-2.108;2023-03-12T11:03:49;99498.75;;;11.58;86.34
28935;BME280;16044;52.726;-2.108;2023-03-12T11:06:26;99492.47;;;11.64;85.24
28935;BME280;16044;52.726;-2.108;2023-03-12T11:11:43;99477.44;;;11.68;85.31
28935;BME280;16044;52.726;-2.108;2023-03-12T11:14:17;99476.81;;;11.79;86.12
28935;BME280;16044;52.726;-2.108;2023-03-12T11:16:49;99485.78;;;11.86;82.88
28935;BME280;16044;52.726;-2.108;2023-03-12T11:19:29;99467.00;;;11.98;81.43
28935;BME280;16044;52.726;-2.108;2023-03-12T11:22:11;99455.53;;;12.03;80.41
28935;BME280;16044;52.726;-2.108;2023-03-12T11:24:55;99460.75;;;12.04;79.02
28935;BME280;16044;52.726;-2.108;2023-03-12T11:27:54;99475.41;;;11.97;79.34
28935;BME280;16044;52.726;-2.108;2023-03-12T11:30:26;99465.13;;;12.12;79.96
28935;BME280;16044;52.726;-2.108;2023-03-12T11:32:58;99473.66;;;12.22;79.25
28935;BME280;16044;52.726;-2.108;2023-03-12T11:38:56;99478.69;;;12.25;77.16
28935;BME280;16044;52.726;-2.108;2023-03-12T11:46:51;99469.50;;;12.13;75.85
28935;BME280;16044;52.726;-2.108;2023-03-12T11:52:21;99456.09;;;12.32;77.60
28935;BME280;16044;52.726;-2.108;2023-03-12T12:00:43;99465.22;;;12.57;74.34
28935;BME280;16044;52.726;-2.108;2023-03-12T12:06:33;99454.09;;;12.59;75.46
28935;BME280;16044;52.726;-2.108;2023-03-12T12:09:35;99472.75;;;12.55;74.63
28935;BME280;16044;52.726;-2.108;2023-03-12T12:23:15;99424.53;;;12.76;73.61
28935;BME280;16044;52.726;-2.108;2023-03-12T12:26:08;99418.41;;;12.87;74.32
28935;BME280;16044;52.726;-2.108;2023-03-12T12:32:01;99426.22;;;12.77;71.88
28935;BME280;16044;52.726;-2.108;2023-03-12T12:37:31;99431.78;;;12.95;72.37
28935;BME280;16044;52.726;-2.108;2023-03-12T12:43:26;99416.56;;;12.81;71.36
28935;BME280;16044;52.726;-2.108;2023-03-12T12:45:58;99411.56;;;12.78;72.06
28935;BME280;16044;52.726;-2.108;2023-03-12T12:48:35;99406.75;;;12.80;71.89
28935;BME280;16044;52.726;-2.108;2023-03-12T12:51:07;99407.59;;;12.80;71.57
28935;BME280;16044;52.726;-2.108;2023-03-12T12:53:56;99407.97;;;12.84;71.62
28935;BME280;16044;52.726;-2.108;2023-03-12T12:56:48;99408.19;;;12.82;73.83
28935;BME280;16044;52.726;-2.108;2023-03-12T12:59:26;99400.22;;;12.87;73.25
28935;BME280;16044;52.726;-2.108;2023-03-12T13:02:01;99399.38;;;12.87;73.51
28935;BME280;16044;52.726;-2.108;2023-03-12T13:04:35;99398.94;;;12.90;73.76
28935;BME280;16044;52.726;-2.108;2023-03-12T13:09:45;99392.63;;;12.96;74.01
28935;BME280;16044;52.726;-2.108;2023-03-12T13:12:33;99382.81;;;12.95;74.00
28935;BME280;16044;52.726;-2.108;2023-03-12T13:20:27;99369.53;;;13.05;73.99
28935;BME280;16044;52.726;-2.108;2023-03-12T13:28:58;99368.59;;;12.93;73.01
28935;BME280;16044;52.726;-2.108;2023-03-12T13:31:40;99365.91;;;12.86;74.16
28935;BME280;16044;52.726;-2.108;2023-03-12T13:36:50;99359.03;;;12.84;73.49
28935;BME280;16044;52.726;-2.108;2023-03-12T13:42:00;99345.69;;;12.76;73.99
28935;BME280;16044;52.726;-2.108;2023-03-12T13:44:48;99333.34;;;12.80;74.10
28935;BME280;16044;52.726;-2.108;2023-03-12T13:47:30;99339.22;;;12.77;73.81
28935;BME280;16044;52.726;-2.108;2023-03-12T13:50:07;99350.28;;;12.82;74.66
28935;BME280;16044;52.726;-2.108;2023-03-12T13:52:45;99341.91;;;12.77;74.35
28935;BME280;16044;52.726;-2.108;2023-03-12T13:55:30;99340.50;;;12.67;75.20
28935;BME280;16044;52.726;-2.108;2023-03-12T13:58:17;99331.34;;;12.62;74.82
28935;BME280;16044;52.726;-2.108;2023-03-12T14:00:52;99327.19;;;12.59;75.54
28935;BME280;16044;52.726;-2.108;2023-03-12T14:03:25;99320.53;;;12.55;75.83
28935;BME280;16044;52.726;-2.108;2023-03-12T14:08:41;99321.78;;;12.53;76.01
28935;BME280;16044;52.726;-2.108;2023-03-12T14:11:23;99312.00;;;12.45;76.17
28935;BME280;16044;52.726;-2.108;2023-03-12T14:16:54;99309.09;;;12.40;76.96
28935;BME280;16044;52.726;-2.108;2023-03-12T14:19:28;99308.06;;;12.34;77.65
28935;BME280;16044;52.726;-2.108;2023-03-12T14:22:00;99295.56;;;12.33;77.58
28935;BME280;16044;52.726;-2.108;2023-03-12T14:24:33;99299.56;;;12.31;77.88
28935;BME280;16044;52.726;-2.108;2023-03-12T14:27:04;99291.84;;;12.27;77.79
28935;BME280;16044;52.726;-2.108;2023-03-12T14:29:39;99299.78;;;12.22;77.80
28935;BME280;16044;52.726;-2.108;2023-03-12T14:32:15;99294.34;;;12.22;77.19
28935;BME280;16044;52.726;-2.108;2023-03-12T14:34:50;99302.31;;;12.17;77.99
28935;BME280;16044;52.726;-2.108;2023-03-12T14:37:36;99293.53;;;12.22;78.00
28935;BME280;16044;52.726;-2.108;2023-03-12T14:40:20;99296.72;;;12.12;77.46
28935;BME280;16044;52.726;-2.108;2023-03-12T14:42:50;99301.13;;;12.06;77.61